Time;durP1;ratioP1;P1;durP2;ratioP2;P2;SDS_P1;SDS_P2;PMS_P1;PMS_P2;Temp;Humidity;BMP_temperature;BMP_pressure;BME280_temperature;BME280_humidity;BME280_pressure;Samples;Min_cycle;Max_cycle;Signal;HPM_P1;HPM_P2
2022/09/22 00:01:49;;;;;;;5.70;4.40;;;;;;;9.91;87.42;99073.19;5091641;28;20078;-60
2022/09/22 00:04:14;;;;;;;5.60;4.47;;;;;;;9.92;87.08;99069.47;5091420;28;20040;-60
2022/09/22 00:06:46;;;;;;;5.55;4.57;;;;;;;9.92;87.23;99068.69;5090023;28;20557;-61
2022/09/22 00:09:13;;;;;;;5.95;4.30;;;;;;;9.92;87.29;99074.78;5090099;28;20404;-61
2022/09/22 00:11:44;;;;;;;6.40;4.75;;;;;;;9.92;86.97;99071.31;5089777;28;20492;-60
2022/09/22 00:14:24;;;;;;;8.43;4.90;;;;;;;9.90;87.31;99065.47;5072776;28;20420;-61
2022/09/22 00:16:56;;;;;;;6.72;5.15;;;;;;;9.91;87.08;99062.59;5089809;28;20043;-61
2022/09/22 00:19:29;;;;;;;6.28;4.80;;;;;;;9.94;86.71;99071.88;5091087;28;20063;-60
2022/09/22 00:21:55;;;;;;;7.10;5.18;;;;;;;9.94;86.88;99062.09;5089990;28;20043;-60
2022/09/22 00:24:22;;;;;;;6.82;4.82;;;;;;;9.97;87.52;99058.97;5090934;28;20535;-61
2022/09/22 00:26:48;;;;;;;8.77;4.85;;;;;;;9.95;87.45;99063.69;5091352;28;20460;-60
2022/09/22 00:29:15;;;;;;;6.47;4.43;;;;;;;9.96;87.41;99067.13;5090913;28;20047;-61
2022/09/22 00:31:42;;;;;;;6.03;4.70;;;;;;;9.92;87.42;99061.53;5091270;28;20161;-60
2022/09/22 00:34:14;;;;;;;5.82;4.75;;;;;;;9.86;87.74;99059.84;5090953;28;20048;-61
2022/09/22 00:36:40;;;;;;;7.97;5.25;;;;;;;9.88;87.14;99070.19;5089675;28;20071;-61
2022/09/22 00:39:06;;;;;;;7.10;4.75;;;;;;;9.80;87.88;99066.09;5091300;28;20544;-61
2022/09/22 00:41:35;;;;;;;7.45;4.72;;;;;;;9.87;88.70;99073.88;5094832;28;20052;-60
2022/09/22 00:44:25;;;;;;;6.32;4.95;;;;;;;9.86;88.05;99074.94;5094499;28;20055;-60
2022/09/22 00:46:57;;;;;;;6.82;4.80;;;;;;;9.89;86.90;99071.81;5093334;28;20043;-60
2022/09/22 00:49:55;;;;;;;8.00;4.88;;;;;;;9.92;86.96;99069.47;5093199;28;20501;-60
2022/09/22 00:52:45;;;;;;;7.40;4.55;;;;;;;9.93;87.27;99080.88;5089847;28;20071;-61
2022/09/22 00:55:24;;;;;;;7.70;5.10;;;;;;;9.86;87.58;99081.03;5080589;28;20566;-61
2022/09/22 00:57:50;;;;;;;6.10;4.97;;;;;;;9.88;87.58;99068.34;5089512;28;20093;-60
2022/09/22 01:00:16;;;;;;;7.00;4.72;;;;;;;9.91;87.44;99067.06;5076131;28;20047;-60
2022/09/22 01:02:46;;;;;;;6.60;4.78;;;;;;;9.93;88.00;99068.41;5089843;28;20044;-60
2022/09/22 01:05:12;;;;;;;6.63;5.07;;;;;;;9.94;87.65;99075.34;5086798;28;20048;-60
2022/09/22 01:07:37;;;;;;;6.18;4.82;;;;;;;9.94;87.26;99074.50;5060914;28;20036;-60
2022/09/22 01:10:03;;;;;;;6.13;4.78;;;;;;;9.95;87.86;99065.53;5074119;28;20044;-60
2022/09/22 01:12:30;;;;;;;7.82;5.35;;;;;;;9.96;87.91;99072.44;5072428;28;20044;-60
2022/09/22 01:15:04;;;;;;;6.53;4.85;;;;;;;9.93;87.33;99070.28;5072543;28;20049;-60
2022/09/22 01:17:46;;;;;;;6.72;4.82;;;;;;;9.86;88.37;99075.72;5072342;28;20044;-60
2022/09/22 01:20:33;;;;;;;6.85;5.25;;;;;;;9.86;88.13;99064.34;5073721;28;20052;-60
2022/09/22 01:23:29;;;;;;;6.88;4.85;;;;;;;9.90;87.43;99076.03;5073634;28;20075;-60
2022/09/22 01:26:03;;;;;;;5.97;4.82;;;;;;;9.92;87.62;99073.97;5073569;28;20048;-60
2022/09/22 01:28:35;;;;;;;7.20;5.47;;;;;;;9.91;87.51;99072.34;5073457;28;20089;-60
2022/09/22 01:31:17;;;;;;;8.38;5.30;;;;;;;9.89;88.38;99066.50;5073782;28;20048;-60
2022/09/22 01:33:51;;;;;;;9.05;5.57;;;;;;;9.85;88.01;99073.31;5055854;28;20048;-60
2022/09/22 01:36:48;;;;;;;8.07;4.88;;;;;;;9.88;87.80;99059.59;5072256;28;20047;-61
2022/09/22 01:39:16;;;;;;;6.38;4.93;;;;;;;9.85;88.33;99066.16;5072153;28;20051;-61
2022/09/22 01:41:47;;;;;;;7.50;5.00;;;;;;;9.86;88.03;99061.69;5073592;28;20049;-61
2022/09/22 01:44:24;;;;;;;7.75;5.50;;;;;;;9.88;87.93;99052.47;5055188;28;20056;-60
2022/09/22 01:46:55;;;;;;;8.05;5.28;;;;;;;9.86;87.60;99048.47;5073536;28;20080;-61
2022/09/22 01:49:22;;;;;;;9.48;5.80;;;;;;;9.87;88.33;99052.69;5072129;28;20102;-61
2022/09/22 01:52:01;;;;;;;10.35;6.10;;;;;;;9.85;87.96;99054.78;5071221;28;20048;-61
2022/09/22 01:54:31;;;;;;;11.80;6.40;;;;;;;9.85;88.40;99049.47;5055263;28;20094;-62
2022/09/22 01:57:20;;;;;;;10.40;6.15;;;;;;;9.84;88.01;99053.19;5071906;28;20425;-60
2022/09/22 01:59:49;;;;;;;9.82;6.40;;;;;;;9.84;88.23;99053.19;5071719;28;20127;-61
2022/09/22 02:02:31;;;;;;;9.27;6.10;;;;;;;9.81;88.26;99057.13;5072858;28;20497;-59
2022/09/22 02:05:00;;;;;;;8.73;6.10;;;;;;;9.80;88.84;99060.00;5071505;28;20040;-61
2022/09/22 02:07:32;;;;;;;10.23;5.97;;;;;;;9.81;88.61;99057.13;5038066;28;20123;-61
2022/09/22 02:09:59;;;;;;;10.15;6.13;;;;;;;9.86;88.07;99056.41;5071563;28;20689;-61
2022/09/22 02:12:25;;;;;;;9.18;6.68;;;;;;;9.88;88.07;99062.25;5054605;28;20060;-61
2022/09/22 02:14:51;;;;;;;9.63;6.63;;;;;;;9.88;89.17;99060.41;5054610;28;20511;-60
2022/09/22 02:17:16;;;;;;;8.70;5.70;;;;;;;9.90;88.58;99068.09;5072638;28;20093;-61
2022/09/22 02:19:42;;;;;;;10.18;6.13;;;;;;;9.92;88.17;99071.31;5070524;28;20106;-61
2022/09/22 02:22:09;;;;;;;10.07;6.68;;;;;;;9.91;87.78;99065.22;5072119;28;20506;-60
2022/09/22 02:24:41;;;;;;;12.07;6.97;;;;;;;9.92;87.99;99063.38;5071053;28;20036;-61
2022/09/22 02:27:13;;;;;;;11.60;6.90;;;;;;;9.97;87.87;99066.09;5071311;28;20067;-60
2022/09/22 02:29:43;;;;;;;9.63;6.40;;;;;;;9.95;88.25;99069.00;5071117;28;20524;-60
2022/09/22 02:32:13;;;;;;;9.07;6.53;;;;;;;9.90;88.20;99065.47;5071251;28;20079;-60
2022/09/22 02:34:39;;;;;;;8.98;6.63;;;;;;;9.94;88.33;99070.03;5070905;28;20283;-61
2022/09/22 02:37:26;;;;;;;10.15;6.35;;;;;;;9.94;89.04;99061.28;5071032;28;20045;-62
2022/09/22 02:40:29;;;;;;;9.07;6.43;;;;;;;9.98;88.64;99063.22;5072094;28;20143;-61
2022/09/22 02:43:00;;;;;;;9.27;6.57;;;;;;;9.96;88.16;99062.66;5070724;28;20075;-62
2022/09/22 02:45:54;;;;;;;9.98;6.57;;;;;;;9.91;88.61;99069.69;5070729;28;20528;-61
2022/09/22 02:48:41;;;;;;;9.00;6.15;;;;;;;9.95;88.87;99065.53;5026970;28;20493;-60
2022/09/22 02:51:07;;;;;;;9.43;6.47;;;;;;;9.95;88.32;99066.34;5070839;28;20048;-60
2022/09/22 02:53:34;;;;;;;9.93;6.60;;;;;;;9.88;88.75;99064.88;5072022;28;20055;-59
2022/09/22 02:56:00;;;;;;;9.82;6.32;;;;;;;9.89;89.27;99067.31;5072039;28;20044;-61
2022/09/22 02:58:26;;;;;;;10.63;6.45;;;;;;;9.89;88.86;99063.88;5070455;28;20044;-61
2022/09/22 03:00:51;;;;;;;10.98;6.75;;;;;;;9.88;88.86;99067.53;5070427;28;20102;-61
2022/09/22 03:03:17;;;;;;;12.20;7.25;;;;;;;9.87;89.54;99072.03;5071783;28;20040;-60
2022/09/22 03:05:42;;;;;;;12.65;7.43;;;;;;;9.88;89.22;99075.47;5070658;28;20135;-61
2022/09/22 03:08:08;;;;;;;9.63;6.82;;;;;;;9.91;89.25;99077.63;5070552;28;20055;-61
2022/09/22 03:10:33;;;;;;;10.82;6.93;;;;;;;9.86;88.97;99069.63;5071700;28;20040;-59
2022/09/22 03:12:59;;;;;;;9.48;6.85;;;;;;;9.82;89.98;99076.44;5070462;28;20193;-61
2022/09/22 03:15:25;;;;;;;12.40;7.60;;;;;;;9.81;89.36;99077.50;5071648;28;20052;-60
2022/09/22 03:17:50;;;;;;;11.68;7.15;;;;;;;9.77;89.82;99083.25;5070287;28;20098;-61
2022/09/22 03:20:16;;;;;;;13.77;7.68;;;;;;;9.81;89.79;99091.53;5071632;28;20080;-60
2022/09/22 03:22:42;;;;;;;10.73;6.53;;;;;;;9.85;89.26;99081.25;5071843;28;20048;-61
2022/09/22 03:25:09;;;;;;;13.07;7.57;;;;;;;9.84;89.98;99077.81;5071512;28;20052;-61
2022/09/22 03:27:36;;;;;;;11.68;7.10;;;;;;;9.83;89.64;99092.09;5070541;28;20436;-60
2022/09/22 03:30:03;;;;;;;10.15;6.47;;;;;;;9.84;89.42;99088.41;5071434;28;20143;-59
2022/09/22 03:32:30;;;;;;;10.50;7.05;;;;;;;9.85;89.64;99083.91;5071472;28;20114;-60
2022/09/22 03:34:55;;;;;;;9.73;6.97;;;;;;;9.84;89.59;99080.47;5071441;28;20178;-60
2022/09/22 03:37:21;;;;;;;10.80;7.32;;;;;;;9.85;90.11;99084.69;5071387;28;20127;-61
2022/09/22 03:39:47;;;;;;;14.18;6.97;;;;;;;9.85;89.45;99084.69;5071728;28;20086;-61
2022/09/22 03:42:12;;;;;;;9.45;6.78;;;;;;;9.84;89.19;99084.94;5071768;28;20599;-61
2022/09/22 03:44:38;;;;;;;10.27;6.85;;;;;;;9.86;89.58;99083.66;5071287;28;20048;-62
2022/09/22 03:47:04;;;;;;;11.82;7.32;;;;;;;9.88;89.55;99078.94;5071397;28;20093;-62
2022/09/22 03:49:30;;;;;;;9.18;7.10;;;;;;;9.87;89.67;99074.69;5053109;28;20409;-61
2022/09/22 03:51:56;;;;;;;11.32;7.13;;;;;;;9.90;89.13;99078.69;5036544;28;20041;-61
2022/09/22 03:54:22;;;;;;;12.93;7.88;;;;;;;9.91;89.39;99077.63;5071246;28;20051;-60
2022/09/22 03:56:47;;;;;;;11.55;7.10;;;;;;;9.88;89.11;99078.94;5071566;28;20036;-60
2022/09/22 03:59:13;;;;;;;10.15;6.68;;;;;;;9.82;89.47;99084.38;5069808;28;20076;-60
2022/09/22 04:01:39;;;;;;;12.88;7.63;;;;;;;9.85;89.79;99087.34;5071544;28;20059;-60
2022/09/22 04:04:05;;;;;;;12.52;7.90;;;;;;;9.87;89.94;99079.19;5071129;28;20106;-62
2022/09/22 04:06:31;;;;;;;10.50;6.72;;;;;;;9.87;89.29;99079.19;5071442;28;20464;-61
2022/09/22 04:08:56;;;;;;;10.68;7.70;;;;;;;9.93;89.68;99086.16;5071110;28;20041;-63
2022/09/22 04:11:23;;;;;;;10.35;7.10;;;;;;;9.94;89.75;99085.94;5071360;28;20045;-61
2022/09/22 04:13:49;;;;;;;13.13;6.60;;;;;;;9.92;89.24;99074.78;5070912;28;20041;-60
2022/09/22 04:16:15;;;;;;;13.38;7.55;;;;;;;9.91;88.94;99088.22;5075291;28;20064;-60
2022/09/22 04:18:41;;;;;;;11.32;6.93;;;;;;;9.89;89.22;99088.50;5073694;28;20139;-61
2022/09/22 04:21:07;;;;;;;10.88;6.85;;;;;;;9.88;89.75;99088.72;5075327;28;20474;-61
2022/09/22 04:23:33;;;;;;;10.55;6.85;;;;;;;9.92;90.13;99088.00;5074720;28;20040;-61
2022/09/22 04:26:00;;;;;;;12.88;8.43;;;;;;;9.94;89.75;99087.75;5073661;28;20457;-61
2022/09/22 04:28:25;;;;;;;11.43;7.70;;;;;;;9.92;89.57;99095.16;5073479;28;20041;-61
2022/09/22 04:30:51;;;;;;;14.00;7.78;;;;;;;9.92;89.79;99093.31;5074740;28;20045;-61
2022/09/22 04:33:17;;;;;;;15.27;8.02;;;;;;;9.88;88.98;99089.53;5073454;28;20040;-60
2022/09/22 04:35:42;;;;;;;14.32;8.10;;;;;;;9.90;89.81;99097.22;5074775;28;20044;-61
2022/09/22 04:38:09;;;;;;;12.73;8.10;;;;;;;9.89;90.01;99088.50;5073230;28;20052;-61
2022/09/22 04:40:36;;;;;;;13.15;8.02;;;;;;;9.90;89.31;99094.59;5073171;28;20490;-62
2022/09/22 04:43:02;;;;;;;12.95;7.93;;;;;;;9.98;89.33;99086.25;5074461;28;20036;-62
2022/09/22 04:45:27;;;;;;;13.13;8.30;;;;;;;9.98;89.48;99087.03;5074398;28;20044;-61
2022/09/22 04:47:53;;;;;;;13.95;7.97;;;;;;;9.98;88.68;99078.31;5074289;28;20391;-61
2022/09/22 04:50:21;;;;;;;13.38;8.10;;;;;;;9.99;89.21;99078.03;5074369;28;20506;-61
2022/09/22 04:52:52;;;;;;;13.38;8.77;;;;;;;9.99;88.37;99093.94;5074319;28;20425;-60
2022/09/22 04:55:18;;;;;;;13.68;9.23;;;;;;;10.01;89.01;99083.13;5074153;28;20052;-60
2022/09/22 04:57:51;;;;;;;15.18;8.45;;;;;;;10.05;88.96;99080.78;5073138;28;20040;-62
2022/09/22 05:00:18;;;;;;;13.70;9.00;;;;;;;10.09;89.11;99079.25;5073031;28;20064;-61
2022/09/22 05:02:44;;;;;;;14.77;9.25;;;;;;;10.09;88.87;99085.38;5056062;28;20156;-62
2022/09/22 05:05:10;;;;;;;15.10;9.13;;;;;;;10.05;89.26;99080.78;5074173;28;20189;-61
2022/09/22 05:07:40;;;;;;;12.23;7.97;;;;;;;10.05;88.77;99080.78;5055775;28;20040;-61
2022/09/22 05:10:06;;;;;;;14.02;8.77;;;;;;;10.04;88.66;99079.97;5055998;28;20044;-61
2022/09/22 05:12:33;;;;;;;13.85;8.82;;;;;;;10.08;88.67;99082.94;5072435;28;20098;-61
2022/09/22 05:14:59;;;;;;;14.05;8.18;;;;;;;10.11;88.44;99075.31;5073756;28;20498;-62
2022/09/22 05:17:25;;;;;;;13.35;8.30;;;;;;;10.15;88.13;99080.97;5073462;28;20036;-60
2022/09/22 05:19:54;;;;;;;15.50;9.07;;;;;;;10.14;88.99;99082.78;5073015;28;20041;-59
2022/09/22 05:22:21;;;;;;;13.13;8.55;;;;;;;10.16;88.65;99086.00;5039307;28;20165;-60
2022/09/22 05:24:47;;;;;;;13.85;8.85;;;;;;;10.20;88.22;99076.50;5073787;28;20044;-60
2022/09/22 05:27:13;;;;;;;12.52;8.70;;;;;;;10.27;88.21;99076.41;5071126;28;20349;-61
2022/09/22 05:29:39;;;;;;;12.98;8.25;;;;;;;10.24;88.03;99080.28;5072707;28;20032;-62
2022/09/22 05:32:05;;;;;;;13.02;8.05;;;;;;;10.27;87.73;99075.59;5081425;28;20040;-62
2022/09/22 05:34:31;;;;;;;12.45;8.18;;;;;;;10.27;87.86;99078.25;5092288;28;20249;-60
2022/09/22 05:36:57;;;;;;;13.10;8.90;;;;;;;10.30;87.42;99067.97;5058676;28;20458;-61
2022/09/22 05:39:22;;;;;;;13.00;8.30;;;;;;;10.37;86.92;99075.72;5093619;28;20044;-62
2022/09/22 05:41:48;;;;;;;12.65;8.90;;;;;;;10.39;86.81;99076.28;5093916;28;20044;-62
2022/09/22 05:44:15;;;;;;;13.82;8.57;;;;;;;10.44;86.58;99076.34;5092048;28;20044;-61
2022/09/22 05:46:40;;;;;;;13.07;7.50;;;;;;;10.48;85.66;99079.34;5082411;28;20135;-61
2022/09/22 05:49:06;;;;;;;13.30;7.80;;;;;;;10.39;86.37;99078.94;5087621;28;20580;-62
2022/09/22 05:51:32;;;;;;;11.27;8.13;;;;;;;10.50;86.52;99091.31;5092270;28;20421;-61
2022/09/22 05:53:57;;;;;;;12.57;7.90;;;;;;;10.53;85.35;99088.16;5092300;28;20036;-64
2022/09/22 05:56:23;;;;;;;12.65;7.80;;;;;;;10.30;85.19;99057.38;5093636;28;20070;-63
2022/09/22 05:58:48;;;;;;;12.55;8.45;;;;;;;10.42;85.90;99078.47;5092036;28;20131;-62
2022/09/22 06:01:14;;;;;;;12.43;8.07;;;;;;;10.37;86.15;99073.09;5093466;28;20051;-61
2022/09/22 06:03:40;;;;;;;11.60;7.32;;;;;;;10.42;86.86;99083.75;5093326;28;20119;-62
2022/09/22 06:06:05;;;;;;;13.18;9.00;;;;;;;10.41;85.97;99085.63;5091903;28;20071;-61
2022/09/22 06:08:31;;;;;;;11.40;8.00;;;;;;;10.45;86.08;99077.97;5093261;28;20594;-61
2022/09/22 06:10:57;;;;;;;14.05;8.52;;;;;;;10.53;85.87;99084.69;5093307;28;20558;-62
2022/09/22 06:13:23;;;;;;;14.60;8.35;;;;;;;10.51;85.51;99081.50;5091590;28;20036;-63
2022/09/22 06:15:48;;;;;;;15.48;8.85;;;;;;;10.48;86.16;99084.63;5091349;28;20044;-63
2022/09/22 06:18:16;;;;;;;14.40;9.00;;;;;;;10.42;85.79;99073.16;5092617;28;20043;-62
2022/09/22 06:20:43;;;;;;;15.50;9.15;;;;;;;10.49;86.12;99084.38;5091609;28;20063;-61
2022/09/22 06:23:12;;;;;;;12.23;9.00;;;;;;;10.49;86.34;99087.03;5086261;28;20156;-61
2022/09/22 06:25:37;;;;;;;14.55;8.77;;;;;;;10.50;85.56;99088.66;5080431;28;20052;-61
2022/09/22 06:28:05;;;;;;;14.10;9.25;;;;;;;10.45;85.45;99083.28;5072583;28;20028;-61
2022/09/22 06:30:35;;;;;;;15.30;10.27;;;;;;;10.42;85.94;99084.56;5077099;28;20043;-62
2022/09/22 06:33:02;;;;;;;14.57;9.85;;;;;;;10.48;85.90;99082.00;5078675;28;20032;-61
2022/09/22 06:35:35;;;;;;;13.73;9.55;;;;;;;10.45;85.13;99065.53;5076168;28;20094;-61
2022/09/22 06:38:01;;;;;;;14.68;9.75;;;;;;;10.55;85.34;99086.06;5057698;28;20086;-62
2022/09/22 06:40:27;;;;;;;14.63;10.02;;;;;;;10.52;85.25;99091.84;5078281;28;20044;-62
2022/09/22 06:42:57;;;;;;;13.55;9.30;;;;;;;10.53;85.11;99089.97;5075230;28;20055;-61
2022/09/22 06:45:26;;;;;;;14.35;9.35;;;;;;;10.56;85.03;99087.66;5074671;28;20051;-61
2022/09/22 06:47:57;;;;;;;11.27;8.40;;;;;;;10.60;84.79;99088.78;5074043;28;20044;-62
2022/09/22 06:50:24;;;;;;;14.13;8.57;;;;;;;10.66;84.67;99093.09;5067303;28;20724;-65
2022/09/22 06:52:50;;;;;;;10.38;7.53;;;;;;;10.69;83.64;99086.50;5052317;28;20134;-62
2022/09/22 06:55:19;;;;;;;12.70;8.05;;;;;;;10.74;83.97;99085.78;5088265;28;20058;-63
2022/09/22 06:57:45;;;;;;;12.43;8.27;;;;;;;10.77;83.11;99085.28;5087809;28;20036;-63
2022/09/22 07:00:13;;;;;;;13.35;7.50;;;;;;;10.74;83.42;99091.09;5086824;28;20074;-61
2022/09/22 07:02:38;;;;;;;12.77;7.57;;;;;;;10.79;83.05;99091.13;5086384;28;20066;-63
2022/09/22 07:05:04;;;;;;;15.70;10.25;;;;;;;10.86;82.96;99097.06;5086536;28;20040;-62
2022/09/22 07:07:31;;;;;;;13.52;9.35;;;;;;;10.87;81.64;99090.72;5087247;28;20089;-60
2022/09/22 07:09:57;;;;;;;16.10;10.10;;;;;;;10.97;82.17;99101.47;5084691;28;20086;-62
2022/09/22 07:12:24;;;;;;;15.50;9.77;;;;;;;11.04;82.09;99094.09;5087238;28;20055;-62
2022/09/22 07:14:51;;;;;;;16.08;10.35;;;;;;;11.12;81.51;99103.50;5067239;28;20141;-62
2022/09/22 07:17:19;;;;;;;13.70;8.48;;;;;;;11.11;81.33;99096.56;5085027;28;20421;-62
2022/09/22 07:19:50;;;;;;;10.57;7.50;;;;;;;11.06;81.70;99096.50;5084555;28;20094;-62
2022/09/22 07:22:17;;;;;;;9.73;7.65;;;;;;;11.06;81.28;99105.28;5087418;28;20105;-62
2022/09/22 07:24:44;;;;;;;14.43;8.90;;;;;;;11.08;81.51;99095.19;5068599;28;20513;-61
2022/09/22 07:27:11;;;;;;;12.57;7.90;;;;;;;11.10;81.47;99108.22;5087753;28;20036;-62
2022/09/22 07:29:38;;;;;;;12.93;7.72;;;;;;;11.08;81.04;99094.41;5086652;28;20374;-62
2022/09/22 07:32:04;;;;;;;13.13;8.40;;;;;;;11.08;80.78;99105.81;5090173;28;20119;-63
2022/09/22 07:34:31;;;;;;;10.65;7.18;;;;;;;11.14;80.73;99107.47;5086295;28;20557;-62
2022/09/22 07:36:58;;;;;;;11.55;8.18;;;;;;;11.18;80.99;99106.97;5089625;28;20409;-62
2022/09/22 07:39:24;;;;;;;10.73;8.00;;;;;;;11.21;81.03;99111.81;5088427;28;20044;-62
2022/09/22 07:41:50;;;;;;;11.57;7.90;;;;;;;11.18;80.49;99114.94;5052315;28;20618;-61
2022/09/22 07:47:02;;;;;;;10.63;7.28;;;;;;;11.06;81.41;99115.06;5087212;28;20138;-60
2022/09/22 07:49:28;;;;;;;9.75;7.50;;;;;;;11.02;81.82;99109.44;5084583;28;20044;-60
2022/09/22 07:51:56;;;;;;;12.60;7.80;;;;;;;11.05;81.40;99111.63;5088215;28;20071;-61
2022/09/22 07:54:22;;;;;;;10.73;8.00;;;;;;;10.90;82.62;99122.03;5069849;28;20040;-59
2022/09/22 07:56:56;;;;;;;9.48;7.63;;;;;;;10.95;81.90;99111.50;5088299;28;20040;-60
2022/09/22 07:59:23;;;;;;;10.60;7.65;;;;;;;11.01;81.55;99113.16;5085950;28;20108;-60
2022/09/22 08:01:51;;;;;;;12.60;8.40;;;;;;;11.02;81.30;99106.00;5089349;28;20055;-61
2022/09/22 08:04:21;;;;;;;12.00;8.70;;;;;;;11.10;81.06;99106.38;5087407;28;20040;-60
2022/09/22 08:06:51;;;;;;;;;;;;;;;11.24;80.33;99114.78;5088142;28;20044;-60
2022/09/22 08:09:17;;;;;;;11.68;8.23;;;;;;;11.26;80.63;99107.34;5088158;28;20015;-61
2022/09/22 08:11:47;;;;;;;12.93;8.10;;;;;;;11.35;80.84;99120.97;5085783;28;20188;-61
2022/09/22 08:14:20;;;;;;;13.60;8.63;;;;;;;11.31;81.31;99125.97;5087352;28;20408;-62
2022/09/22 08:16:47;;;;;;;12.63;8.70;;;;;;;11.22;81.00;99135.44;5090268;28;20135;-62
2022/09/22 08:19:13;;;;;;;11.80;8.75;;;;;;;11.13;82.07;99123.66;5086078;28;20063;-60
2022/09/22 08:21:42;;;;;;;14.32;9.50;;;;;;;11.10;82.36;99124.94;5069634;28;20044;-61
2022/09/22 08:24:10;;;;;;;12.00;8.82;;;;;;;11.11;82.37;99118.59;5088414;28;20062;-62
2022/09/22 08:26:45;;;;;;;15.10;9.60;;;;;;;11.06;82.24;99123.84;5087193;28;20044;-60
2022/09/22 08:29:11;;;;;;;14.65;10.07;;;;;;;11.11;82.50;99123.88;5085814;28;20043;-62
2022/09/22 08:31:40;;;;;;;13.52;8.70;;;;;;;11.14;81.68;99120.75;5086840;28;20055;-60
2022/09/22 08:34:06;;;;;;;14.18;9.05;;;;;;;11.08;82.25;99121.72;5084831;28;20134;-61
2022/09/22 08:36:33;;;;;;;14.00;8.82;;;;;;;10.99;82.08;99098.53;5068060;28;20241;-61
2022/09/22 08:38:59;;;;;;;15.85;9.85;;;;;;;11.05;82.26;99114.25;5086397;28;20108;-61
2022/09/22 08:42:00;;;;;;;12.73;8.43;;;;;;;11.12;81.02;99109.59;5085902;28;20048;-62
2022/09/22 08:44:53;;;;;;;13.10;8.52;;;;;;;11.10;80.72;99113.53;5086045;28;20105;-61
2022/09/22 08:53:08;;;;;;;14.02;9.25;;;;;;;11.32;79.98;99130.25;5086686;28;20489;-61
2022/09/22 08:55:41;;;;;;;14.80;9.07;;;;;;;11.35;79.71;99134.25;5087229;28;20122;-62
2022/09/22 08:58:31;;;;;;;12.38;8.93;;;;;;;11.39;80.14;99126.59;5084158;28;20334;-62
2022/09/22 09:01:22;;;;;;;12.25;8.55;;;;;;;11.44;79.77;99126.63;5089881;28;20063;-63
2022/09/22 09:04:29;;;;;;;15.40;9.10;;;;;;;11.43;79.37;99127.69;5091119;28;20040;-62
2022/09/22 09:07:06;;;;;;;12.30;8.30;;;;;;;11.44;79.79;99139.91;5091601;28;20048;-63
2022/09/22 09:10:02;;;;;;;13.52;9.05;;;;;;;11.57;78.58;99140.34;5088943;28;20138;-62
2022/09/22 09:12:50;;;;;;;15.13;8.90;;;;;;;11.66;77.57;99134.59;5072504;28;20048;-61
2022/09/22 09:15:18;;;;;;;15.02;8.73;;;;;;;11.55;77.93;99133.66;5072745;28;20044;-61
2022/09/22 09:17:46;;;;;;;11.30;8.60;;;;;;;11.54;78.07;99134.72;5090655;28;20135;-61
2022/09/22 09:20:16;;;;;;;11.32;8.65;;;;;;;11.47;78.00;99134.09;5074096;28;20580;-61
2022/09/22 09:22:51;;;;;;;12.75;9.32;;;;;;;11.41;77.95;99138.56;5090416;28;20497;-63
2022/09/22 09:25:34;;;;;;;14.85;9.15;;;;;;;11.43;78.27;99133.81;5086749;28;20044;-62
2022/09/22 09:28:05;;;;;;;13.77;9.48;;;;;;;11.57;77.80;99135.03;5086221;28;20420;-61
2022/09/22 09:30:37;;;;;;;14.88;9.32;;;;;;;11.72;77.39;99139.69;5088182;28;20051;-61
2022/09/22 09:33:10;;;;;;;12.70;8.98;;;;;;;11.81;76.75;99140.84;5088582;28;20054;-62
2022/09/22 09:35:48;;;;;;;13.75;9.40;;;;;;;11.86;76.82;99136.66;5073154;28;20044;-61
2022/09/22 09:38:16;;;;;;;14.40;9.73;;;;;;;11.85;76.18;99138.50;5055366;28;20119;-62
2022/09/22 09:40:48;;;;;;;12.63;9.88;;;;;;;11.90;76.32;99138.56;5089418;28;20511;-62
2022/09/22 09:43:14;;;;;;;16.40;10.93;;;;;;;11.92;76.09;99130.34;5089564;28;20122;-61
2022/09/22 09:45:59;;;;;;;12.98;9.38;;;;;;;11.88;75.67;99135.34;5073420;28;20059;-61
2022/09/22 09:48:41;;;;;;;12.65;9.15;;;;;;;11.83;75.71;99154.66;5072170;28;20328;-63
2022/09/22 09:51:11;;;;;;;11.88;8.13;;;;;;;11.77;75.82;99144.25;5089579;28;20059;-62
2022/09/22 09:53:43;;;;;;;12.25;9.45;;;;;;;11.83;75.99;99144.06;5088533;28;20409;-62
2022/09/22 09:56:27;;;;;;;12.63;9.85;;;;;;;11.81;75.90;99142.69;5090025;28;20052;-62
2022/09/22 10:01:53;;;;;;;12.77;9.02;;;;;;;11.77;75.04;99134.44;5087254;28;20113;-65
2022/09/22 10:04:37;;;;;;;16.48;10.23;;;;;;;11.77;75.28;99136.28;5055936;28;20042;-64
2022/09/22 10:07:26;;;;;;;16.80;10.60;;;;;;;11.77;75.39;99130.97;5090289;28;20359;-65
2022/09/22 10:09:52;;;;;;;14.45;10.18;;;;;;;11.88;75.63;99127.38;5089046;28;20055;-65
2022/09/22 10:12:25;;;;;;;11.38;8.20;;;;;;;11.92;75.15;99128.50;5088484;28;20036;-66
2022/09/22 10:14:56;;;;;;;11.85;7.90;;;;;;;12.02;74.71;99130.44;5090022;28;20032;-64
2022/09/22 10:17:54;;;;;;;10.25;7.38;;;;;;;12.13;74.17;99131.31;5089553;28;20043;-64
2022/09/22 10:20:43;;;;;;;11.43;8.02;;;;;;;12.07;73.89;99127.03;5057517;28;20139;-64
2022/09/22 10:23:21;;;;;;;11.73;8.45;;;;;;;11.99;73.65;99123.75;5089569;28;20122;-66
2022/09/22 10:25:48;;;;;;;17.20;8.88;;;;;;;11.99;74.21;99130.94;5072216;28;20055;-65
2022/09/22 10:28:17;;;;;;;14.02;9.00;;;;;;;12.08;73.71;99118.78;5089377;28;20056;-65
2022/09/22 10:30:45;;;;;;;12.40;8.70;;;;;;;12.05;73.55;99120.09;5092042;28;20048;-66
2022/09/22 10:33:19;;;;;;;10.95;8.45;;;;;;;12.10;73.62;99126.50;5072863;28;20454;-65
2022/09/22 10:35:46;;;;;;;16.02;9.02;;;;;;;12.15;73.69;99119.38;5090444;28;20489;-66
2022/09/22 10:38:15;;;;;;;12.07;8.50;;;;;;;12.36;73.00;99116.88;5090987;28;20052;-65
2022/09/22 10:40:51;;;;;;;12.55;7.72;;;;;;;12.41;72.47;99108.91;5090312;28;20493;-66
2022/09/22 10:43:29;;;;;;;;;;;;;;;12.36;72.36;99114.22;5075783;28;20032;-66
2022/09/22 10:46:08;;;;;;;15.43;8.93;;;;;;;12.42;72.99;99105.22;5088057;28;20316;-64
2022/09/22 10:48:52;;;;;;;10.93;7.60;;;;;;;12.38;72.61;99114.75;5070656;28;20040;-66
2022/09/22 10:51:39;;;;;;;10.52;7.97;;;;;;;12.48;72.93;99110.31;5088721;28;20047;-65
2022/09/22 10:54:23;;;;;;;11.77;7.60;;;;;;;12.57;72.83;99110.63;5089715;28;20044;-65
2022/09/22 10:56:53;;;;;;;8.10;7.30;;;;;;;12.66;71.99;99121.59;5090661;28;20047;-64
2022/09/22 10:59:58;;;;;;;11.07;7.27;;;;;;;12.56;71.34;99110.88;5035219;28;20071;-67
2022/09/22 11:02:39;;;;;;;9.05;6.93;;;;;;;12.59;71.90;99105.88;4997863;28;20387;-65
2022/09/22 11:05:04;;;;;;;;;;;;;;;12.67;70.79;99109.88;5080334;28;20082;-66
2022/09/22 11:13:28;;;;;;;9.07;7.00;;;;;;;12.33;72.01;99109.41;5075683;28;20060;-65
2022/09/22 11:16:10;;;;;;;9.52;7.18;;;;;;;12.32;72.53;99108.59;5076836;28;20409;-65
2022/09/22 11:18:51;;;;;;;8.85;6.47;;;;;;;12.28;72.55;99120.81;5078568;28;20465;-64
2022/09/22 11:21:40;;;;;;;8.65;6.88;;;;;;;12.25;72.95;99116.78;5112347;27;20440;-65
2022/09/22 11:24:24;;;;;;;8.18;6.97;;;;;;;12.21;72.96;99104.28;5047513;28;20052;-64
2022/09/22 11:26:55;;;;;;;9.52;7.40;;;;;;;12.21;73.08;99098.97;5078795;28;20044;-65
2022/09/22 11:29:48;;;;;;;11.30;7.18;;;;;;;12.24;73.04;99101.13;5077943;28;20044;-64
2022/09/22 11:32:40;;;;;;;11.30;7.18;;;;;;;12.26;72.52;99106.97;5079580;28;20090;-66
2022/09/22 11:35:06;;;;;;;8.48;6.22;;;;;;;12.21;72.08;99112.25;5085363;28;20040;-65
2022/09/22 11:38:01;;;;;;;7.45;6.13;;;;;;;12.19;71.53;99112.50;5090334;28;20043;-66
2022/09/22 11:40:48;;;;;;;6.65;5.78;;;;;;;12.26;71.61;99104.31;5082894;28;20044;-63
2022/09/22 11:43:27;;;;;;;15.20;6.45;;;;;;;12.31;71.84;99096.38;5073246;28;20040;-64
2022/09/22 11:45:57;;;;;;;13.57;7.15;;;;;;;12.33;71.57;99099.59;5070907;28;20081;-63
2022/09/22 11:48:50;;;;;;;8.43;5.97;;;;;;;12.39;71.40;99101.22;5069757;28;20049;-63
2022/09/22 11:51:29;;;;;;;13.40;7.43;;;;;;;12.39;71.38;99103.09;5069736;28;20051;-65
2022/09/22 11:54:16;;;;;;;10.23;6.05;;;;;;;12.48;71.27;99107.66;5070853;28;20044;-63
2022/09/22 11:56:50;;;;;;;9.70;6.60;;;;;;;12.52;71.44;99096.50;5081173;28;20029;-64
2022/09/22 11:59:27;;;;;;;9.60;7.47;;;;;;;12.46;71.43;99104.44;5046775;28;20051;-64
2022/09/22 12:01:54;;;;;;;11.90;6.40;;;;;;;12.49;70.64;99103.94;5079762;28;20047;-63
2022/09/22 12:04:36;;;;;;;10.75;6.97;;;;;;;12.43;70.44;99101.50;5061325;28;20044;-63
2022/09/22 12:07:06;;;;;;;8.23;5.47;;;;;;;12.46;70.56;99093.81;5077633;28;20488;-63
2022/09/22 12:09:45;;;;;;;8.98;6.53;;;;;;;12.54;70.92;99078.44;5075565;28;20531;-64